Time,TemperatureF,DewpointF,PressureIn,WindDirection,WindDirectionDegrees,WindSpeedMPH,WindSpeedGustMPH,Humidity,HourlyPrecipIn,Conditions,Clouds,dailyrainin,SoftwareType,DateUTC
2013-06-22 00:00:00,78.8,73.2,30.11,NNE,20,0.0,0.0,83,0.00,,---,0.00,VWS V14.01,2013-06-22 04:00:00,
2013-06-22 01:00:00,78.6,73.0,30.10,North,0,0.0,0.0,83,0.00,,---,0.00,VWS V14.01,2013-06-22 05:00:00,
2013-06-22 02:00:00,78.8,73.6,30.10,North,0,0.0,0.0,84,0.00,,---,0.00,VWS V14.01,2013-06-22 06:00:00,
2013-06-22 03:00:00,78.7,73.5,30.08,North,0,0.0,0.0,84,0.00,,---,0.00,VWS V14.01,2013-06-22 07:00:00,
2013-06-22 04:00:00,78.8,73.9,30.08,North,0,0.0,0.0,85,0.00,,---,0.00,VWS V14.01,2013-06-22 08:00:00,
2013-06-22 05:00:00,78.6,74.1,30.08,North,0,0.0,0.0,86,0.00,,---,0.00,VWS V14.01,2013-06-22 09:00:00,
2013-06-22 06:00:00,78.3,73.4,30.08,North,0,0.0,0.0,85,0.00,,---,0.00,VWS V14.01,2013-06-22 10:00:00,
2013-06-22 07:00:00,77.1,73.6,30.09,North,0,0.0,0.0,89,0.00,,---,0.00,VWS V14.01,2013-06-22 11:00:00,
2013-06-22 08:00:00,77.1,73.6,30.09,North,0,0.0,0.0,89,0.00,,---,0.00,VWS V14.01,2013-06-22 12:00:00,
2013-06-22 08:31:00,77.1,73.6,30.09,North,0,0.0,0.0,89,0.00,,---,0.00,VWS V14.01,2013-06-22 12:31:00,
2013-06-22 08:32:00,78.1,74.6,30.11,SSW,207,0.0,0.0,89,0.00,,---,0.00,VWS V14.01,2013-06-22 12:32:00,
2013-06-22 08:37:00,78.3,74.5,30.11,SSW,207,0.0,0.0,88,0.00,,---,0.00,VWS V14.01,2013-06-22 12:37:00,
2013-06-22 09:00:00,77.3,74.1,30.10,North,0,0.0,0.0,90,0.00,,---,0.00,VWS V14.01,2013-06-22 13:00:00,
2013-06-22 10:00:00,79.3,73.3,30.12,North,0,0.0,0.0,82,0.00,,---,0.00,VWS V14.01,2013-06-22 14:00:00,
2013-06-22 11:00:00,82.1,73.4,30.12,SE,135,2.0,9.0,75,0.00,,---,0.00,VWS V14.01,2013-06-22 15:00:00,
2013-06-22 12:00:00,80.0,74.0,30.13,SE,135,5.0,13.0,82,0.02,,---,0.02,VWS V14.01,2013-06-22 16:00:00,
2013-06-22 13:00:00,84.4,76.8,30.12,SE,135,8.0,14.0,78,0.00,,---,0.02,VWS V14.01,2013-06-22 17:00:00,
2013-06-22 14:00:00,84.4,76.8,30.12,SE,135,8.0,14.0,78,0.00,,---,0.02,VWS V14.01,2013-06-22 18:00:00,
2013-06-22 14:16:00,79.4,75.2,30.12,SE,128,7.0,8.0,87,0.05,,---,0.07,VWS V14.01,2013-06-22 18:16:00,
2013-06-22 14:21:00,79.2,75.0,30.12,ESE,121,5.0,11.0,87,0.06,,---,0.08,VWS V14.01,2013-06-22 18:21:00,
2013-06-22 14:26:00,79.2,75.3,30.13,SE,129,6.0,11.0,88,0.06,,---,0.08,VWS V14.01,2013-06-22 18:26:00,
2013-06-22 14:31:00,79.1,75.2,30.13,ESE,121,8.0,11.0,88,0.07,,---,0.09,VWS V14.01,2013-06-22 18:31:00,
2013-06-22 14:36:00,79.1,75.2,30.13,SE,129,4.0,11.0,88,0.07,,---,0.09,VWS V14.01,2013-06-22 18:36:00,
2013-06-22 15:00:00,80.0,75.1,30.13,SE,135,5.0,13.0,85,0.00,,---,0.02,VWS V14.01,2013-06-22 19:00:00,
2013-06-22 16:00:00,78.6,74.8,30.13,SE,135,6.0,13.0,88,0.06,,---,0.08,VWS V14.01,2013-06-22 20:00:00,
2013-06-22 17:00:00,78.1,75.9,30.11,SSW,202,1.0,6.0,93,0.16,,---,0.24,VWS V14.01,2013-06-22 21:00:00,
2013-06-22 18:00:00,78.1,75.9,30.11,SSW,202,1.0,6.0,93,0.16,,---,0.24,VWS V14.01,2013-06-22 22:00:00,
2013-06-22 18:10:00,78.1,75.9,30.11,SSW,202,1.0,6.0,93,0.16,,---,0.24,VWS V14.01,2013-06-22 22:10:00,
2013-06-22 18:15:00,79.8,75.6,30.08,SSE,147,1.0,5.0,87,0.03,,---,0.26,VWS V14.01,2013-06-22 22:15:00,
2013-06-22 18:20:00,79.4,74.8,30.08,SE,136,5.0,6.0,86,0.03,,---,0.26,VWS V14.01,2013-06-22 22:20:00,
2013-06-22 18:25:00,79.5,75.3,30.08,SE,134,3.0,7.0,87,0.03,,---,0.26,VWS V14.01,2013-06-22 22:25:00,
2013-06-22 18:30:00,79.5,75.3,30.08,SSE,150,6.0,7.0,87,0.03,,---,0.26,VWS V14.01,2013-06-22 22:30:00,
2013-06-22 18:35:00,79.3,75.1,30.08,South,182,2.0,8.0,87,0.03,,---,0.26,VWS V14.01,2013-06-22 22:35:00,
2013-06-22 18:40:00,79.1,74.9,30.08,South,188,3.0,8.0,87,0.03,,---,0.26,VWS V14.01,2013-06-22 22:40:00,
2013-06-22 18:45:00,79.2,75.3,30.08,SE,140,5.0,8.0,88,0.03,,---,0.26,VWS V14.01,2013-06-22 22:45:00,
2013-06-22 18:50:00,79.3,75.4,30.08,SSE,153,4.0,8.0,88,0.03,,---,0.26,VWS V14.01,2013-06-22 22:50:00,
2013-06-22 18:55:00,79.3,75.4,30.08,SSE,164,4.0,8.0,88,0.03,,---,0.26,VWS V14.01,2013-06-22 22:55:00,
2013-06-22 19:00:00,79.1,75.2,30.08,SSE,159,4.0,5.0,88,0.00,,---,0.26,VWS V14.01,2013-06-22 23:00:00,
2013-06-22 19:05:00,79.0,75.2,30.07,SE,139,3.0,6.0,88,0.00,,---,0.26,VWS V14.01,2013-06-22 23:05:00,
2013-06-22 20:00:00,79.1,75.2,30.08,SSE,148,4.0,8.0,88,0.03,,---,0.26,VWS V14.01,2013-06-23 00:00:00,
2013-06-22 20:24:00,78.6,73.7,30.10,SSE,157,0.0,0.0,85,0.00,,---,0.26,VWS V14.01,2013-06-23 00:24:00,
2013-06-22 20:29:00,78.6,73.7,30.10,SSE,157,0.0,0.0,85,0.00,,---,0.26,VWS V14.01,2013-06-23 00:29:00,
2013-06-22 20:34:00,78.7,74.2,30.10,SSE,155,2.0,3.0,86,0.00,,---,0.26,VWS V14.01,2013-06-23 00:34:00,
2013-06-22 20:39:00,78.7,74.2,30.10,SSE,155,0.0,3.0,86,0.00,,---,0.26,VWS V14.01,2013-06-23 00:39:00,
2013-06-22 20:44:00,78.8,74.3,30.10,SSE,155,1.0,3.0,86,0.00,,---,0.26,VWS V14.01,2013-06-23 00:44:00,
2013-06-22 21:00:00,78.6,74.1,30.09,SSE,158,3.0,8.0,86,0.00,,---,0.00,VWS V14.01,2013-06-23 01:00:00,
2013-06-22 22:00:00,78.8,74.3,30.11,SSE,158,1.0,5.0,86,0.00,,---,0.00,VWS V14.01,2013-06-23 02:00:00,
2013-06-22 23:00:00,78.5,74.3,30.11,East,90,1.0,5.0,87,0.00,,---,0.00,VWS V14.01,2013-06-23 03:00:00,